createdAt,value
2019-03-31T00:00:34.756Z,67.38
2019-03-31T00:03:05.164Z,67.33
2019-03-31T00:05:37.344Z,67.80
2019-03-31T00:08:07.479Z,67.78
2019-03-31T00:10:37.913Z,67.79
2019-03-31T00:13:08.546Z,67.74
2019-03-31T00:15:39.045Z,68.00
2019-03-31T00:18:09.578Z,68.00
2019-03-31T00:20:40.002Z,68.01
2019-03-31T00:23:10.376Z,68.00
2019-03-31T00:25:42.479Z,68.46
2019-03-31T00:28:13.175Z,68.54
2019-03-31T00:30:43.657Z,68.69
2019-03-31T00:33:14.056Z,68.89
2019-03-31T00:35:44.417Z,69.11
2019-03-31T00:38:15.882Z,69.47
2019-03-31T00:40:46.375Z,69.46
2019-03-31T00:43:16.698Z,69.86
2019-03-31T00:45:47.055Z,69.93
2019-03-31T00:48:17.515Z,70.01
2019-03-31T00:50:47.940Z,69.90
2019-03-31T00:53:18.362Z,69.90
2019-03-31T00:55:48.706Z,70.15
2019-03-31T00:58:19.136Z,70.36
2019-03-31T01:00:51.336Z,69.89
2019-03-31T01:03:23.559Z,69.90
2019-03-31T01:05:53.995Z,70.04
2019-03-31T01:08:26.448Z,69.98
2019-03-31T01:10:57.604Z,69.75
2019-03-31T01:13:28.323Z,69.77
2019-03-31T01:15:59.004Z,70.08
2019-03-31T01:18:29.479Z,69.96
2019-03-31T01:21:00.060Z,70.31
2019-03-31T01:23:30.535Z,70.08
2019-03-31T01:26:01.102Z,70.18
2019-03-31T01:28:31.487Z,70.49
2019-03-31T01:31:02.176Z,70.91
2019-03-31T01:33:32.697Z,70.72
2019-03-31T01:36:03.225Z,70.77
2019-03-31T01:38:34.655Z,70.72
2019-03-31T01:41:05.110Z,70.16
2019-03-31T01:43:35.592Z,70.17
2019-03-31T01:46:07.665Z,69.87
2019-03-31T01:48:38.055Z,70.25
2019-03-31T01:51:08.540Z,70.85
2019-03-31T01:53:39.062Z,70.49
2019-03-31T01:56:09.611Z,70.50
2019-03-31T01:58:40.016Z,70.44
2019-03-31T02:01:15.356Z,69.92
2019-03-31T02:03:45.795Z,70.25
2019-03-31T02:06:16.402Z,70.43
2019-03-31T02:08:46.710Z,70.43
2019-03-31T02:11:17.231Z,70.59
2019-03-31T02:13:47.671Z,70.69
2019-03-31T02:16:18.118Z,70.75
2019-03-31T02:18:48.485Z,70.95
2019-03-31T02:21:18.837Z,70.95
2019-03-31T02:23:49.225Z,70.70
2019-03-31T02:26:19.545Z,70.36
2019-03-31T02:28:49.893Z,70.24
2019-03-31T02:31:20.471Z,70.47
2019-03-31T02:33:50.868Z,70.42
2019-03-31T02:36:21.336Z,70.54
2019-03-31T02:38:51.692Z,70.66
2019-03-31T02:41:22.032Z,70.31
2019-03-31T02:43:52.458Z,70.41
2019-03-31T02:46:22.960Z,70.22
2019-03-31T02:48:53.366Z,70.51
2019-03-31T02:51:23.901Z,70.97
2019-03-31T02:53:54.326Z,71.16
2019-03-31T02:56:25.451Z,71.61
2019-03-31T02:58:57.544Z,71.84
2019-03-31T03:01:29.468Z,72.02
2019-03-31T03:04:01.734Z,71.69
2019-03-31T03:06:32.173Z,71.62
2019-03-31T03:09:02.611Z,71.82
2019-03-31T03:11:34.705Z,71.74
2019-03-31T03:14:05.553Z,71.94
2019-03-31T03:16:36.111Z,71.90
2019-03-31T03:19:06.448Z,72.23
2019-03-31T03:21:37.140Z,72.54
2019-03-31T03:24:07.607Z,72.27
2019-03-31T03:26:37.989Z,72.34
2019-03-31T03:29:08.635Z,72.45
2019-03-31T03:31:39.384Z,72.01
2019-03-31T03:34:10.006Z,71.70
2019-03-31T03:36:43.205Z,72.45
2019-03-31T03:39:12.374Z,72.51
2019-03-31T03:41:42.983Z,72.26
2019-03-31T03:44:13.686Z,72.39
2019-03-31T03:46:44.094Z,72.72
2019-03-31T03:49:14.742Z,72.43
2019-03-31T03:51:45.330Z,72.52
2019-03-31T03:54:16.738Z,72.74
2019-03-31T03:56:47.179Z,72.79
2019-03-31T03:59:17.594Z,72.71
2019-03-31T04:01:48.132Z,73.01
2019-03-31T04:04:18.646Z,72.43
2019-03-31T04:06:49.017Z,72.23
2019-03-31T04:09:19.376Z,72.12
2019-03-31T04:11:49.694Z,72.42
2019-03-31T04:14:20.199Z,72.06
2019-03-31T04:16:50.906Z,72.25
2019-03-31T04:19:21.371Z,72.14
2019-03-31T04:21:51.913Z,72.38
2019-03-31T04:24:22.245Z,72.23
2019-03-31T04:26:52.670Z,72.09
2019-03-31T04:29:23.142Z,72.00
2019-03-31T04:31:53.597Z,72.08
2019-03-31T04:34:25.605Z,72.59
2019-03-31T04:36:56.103Z,72.52
2019-03-31T04:39:26.484Z,72.78
2019-03-31T04:41:56.935Z,72.89
2019-03-31T04:44:27.245Z,73.33
2019-03-31T04:46:57.798Z,73.01
2019-03-31T04:49:28.259Z,72.88
2019-03-31T04:51:58.663Z,72.79
2019-03-31T04:54:29.014Z,72.78
2019-03-31T04:56:59.687Z,72.64
2019-03-31T04:59:30.050Z,72.73
2019-03-31T05:02:00.938Z,72.23
2019-03-31T05:04:31.349Z,72.48
2019-03-31T05:07:01.721Z,72.41
2019-03-31T05:09:32.277Z,72.66
2019-03-31T05:12:02.860Z,72.84
2019-03-31T05:14:33.289Z,72.67
2019-03-31T05:17:03.720Z,72.57
2019-03-31T05:19:34.066Z,72.95
2019-03-31T05:22:04.462Z,73.07
2019-03-31T05:24:34.925Z,73.50
2019-03-31T05:27:05.458Z,73.46
2019-03-31T05:29:36.103Z,73.04
2019-03-31T05:32:06.888Z,72.76
2019-03-31T05:34:37.326Z,72.15
2019-03-31T05:37:07.729Z,71.94
2019-03-31T05:39:39.037Z,71.95
2019-03-31T05:42:09.547Z,72.23
2019-03-31T05:44:39.969Z,71.91
2019-03-31T05:47:10.407Z,71.37
2019-03-31T05:49:40.719Z,70.32
2019-03-31T05:52:11.224Z,69.93
2019-03-31T05:54:41.774Z,69.86
2019-03-31T05:57:12.223Z,69.29
2019-03-31T05:59:42.745Z,69.32
2019-03-31T06:02:13.082Z,67.70
2019-03-31T06:04:43.455Z,67.71
2019-03-31T06:07:13.803Z,67.52
2019-03-31T06:09:46.599Z,66.74
2019-03-31T06:12:17.948Z,66.28
2019-03-31T06:14:48.490Z,65.47
2019-03-31T06:17:18.964Z,66.02
2019-03-31T06:19:49.357Z,67.28
2019-03-31T06:22:19.881Z,66.32
2019-03-31T06:24:50.470Z,64.30
2019-03-31T06:27:20.930Z,65.53
2019-03-31T06:29:51.295Z,63.13
2019-03-31T06:32:21.726Z,63.68
2019-03-31T06:34:52.232Z,63.15
2019-03-31T06:37:22.652Z,62.77
2019-03-31T06:39:53.051Z,59.79
2019-03-31T06:42:23.858Z,56.14
2019-03-31T06:44:54.298Z,54.65
2019-03-31T06:47:24.715Z,56.21
2019-03-31T06:49:55.223Z,52.86
2019-03-31T06:52:25.554Z,50.57
2019-03-31T06:54:56.341Z,50.23
2019-03-31T06:57:26.747Z,50.08
2019-03-31T06:59:57.077Z,50.80
2019-03-31T07:02:27.572Z,51.18
2019-03-31T07:05:01.231Z,47.39
2019-03-31T07:07:30.047Z,47.54
2019-03-31T07:10:00.502Z,45.67
2019-03-31T07:12:30.952Z,45.51
2019-03-31T07:15:01.403Z,42.87
2019-03-31T07:17:32.926Z,41.91
2019-03-31T07:20:03.434Z,44.48
2019-03-31T07:22:33.906Z,47.99
2019-03-31T07:25:04.932Z,46.12
2019-03-31T07:27:35.589Z,46.05
2019-03-31T07:31:56.360Z,42.93
2019-03-31T07:34:28.656Z,43.45
2019-03-31T07:37:01.066Z,45.09
2019-03-31T07:39:33.212Z,47.58
2019-03-31T07:42:05.098Z,49.22
2019-03-31T07:44:37.302Z,49.51
2019-03-31T07:47:09.666Z,50.19
2019-03-31T07:49:42.031Z,49.54
2019-03-31T07:52:14.181Z,52.63
2019-03-31T07:54:46.156Z,48.68
2019-03-31T07:57:18.492Z,45.57
2019-03-31T07:59:50.884Z,43.99
2019-03-31T08:02:22.970Z,42.07
2019-03-31T08:04:55.988Z,41.99
2019-03-31T08:07:28.268Z,40.84
2019-03-31T08:10:00.455Z,41.45
2019-03-31T08:12:33.499Z,42.92
2019-03-31T08:15:05.858Z,39.73
2019-03-31T08:17:38.352Z,38.79
2019-03-31T08:20:13.436Z,41.39
2019-03-31T08:22:45.474Z,45.61
2019-03-31T08:25:17.715Z,45.91
2019-03-31T08:27:49.532Z,48.38
2019-03-31T08:30:21.735Z,50.23
2019-03-31T08:32:54.202Z,52.15
2019-03-31T08:35:26.481Z,52.29
2019-03-31T08:37:58.716Z,52.61
2019-03-31T08:40:30.611Z,52.24
2019-03-31T08:43:02.729Z,51.92
2019-03-31T08:45:35.276Z,51.38
2019-03-31T08:48:08.738Z,52.24
2019-03-31T08:50:41.843Z,52.85
2019-03-31T08:53:14.252Z,53.26
2019-03-31T08:55:46.293Z,51.62
2019-03-31T08:58:18.275Z,52.32
2019-03-31T09:00:52.016Z,54.63
2019-03-31T09:03:24.232Z,55.78
2019-03-31T09:06:02.204Z,55.86
2019-03-31T09:08:30.634Z,54.30
2019-03-31T09:11:03.715Z,54.30
2019-03-31T09:13:35.552Z,56.08
2019-03-31T09:16:08.057Z,54.04
2019-03-31T09:18:40.247Z,53.51
2019-03-31T09:21:12.254Z,52.93
2019-03-31T09:23:44.558Z,52.97
2019-03-31T09:26:16.544Z,53.86
2019-03-31T09:28:48.923Z,54.39
2019-03-31T09:31:20.914Z,53.29
2019-03-31T09:33:54.008Z,52.79
2019-03-31T09:36:26.133Z,53.57
2019-03-31T09:38:58.186Z,52.74
2019-03-31T09:41:30.493Z,53.57
2019-03-31T09:44:02.667Z,54.10
2019-03-31T09:46:35.198Z,52.83
2019-03-31T09:49:07.419Z,51.67
2019-03-31T09:51:39.380Z,52.23
2019-03-31T09:54:11.680Z,51.66
2019-03-31T09:56:43.805Z,51.78
2019-03-31T09:59:15.987Z,52.04
2019-03-31T10:01:48.222Z,52.01
2019-03-31T10:04:20.510Z,51.86
2019-03-31T10:06:53.209Z,51.57
2019-03-31T10:09:25.995Z,51.26
2019-03-31T10:11:58.560Z,50.61
2019-03-31T10:14:30.839Z,52.87
2019-03-31T10:17:02.918Z,50.90
2019-03-31T10:19:35.019Z,47.47
2019-03-31T10:22:07.280Z,46.05
2019-03-31T10:24:39.512Z,48.30
2019-03-31T10:27:12.826Z,46.83
2019-03-31T10:29:44.742Z,47.62
2019-03-31T10:32:16.765Z,47.97
2019-03-31T10:34:48.873Z,49.36
2019-03-31T10:37:21.127Z,46.87
2019-03-31T10:39:53.146Z,46.38
2019-03-31T10:42:25.374Z,45.06
2019-03-31T10:44:58.440Z,47.17
2019-03-31T10:47:30.867Z,46.91
2019-03-31T10:50:02.978Z,45.22
2019-03-31T10:52:35.162Z,40.05
2019-03-31T10:55:07.870Z,40.05
2019-03-31T10:57:40.107Z,42.30
2019-03-31T11:00:12.761Z,43.11
2019-03-31T11:02:44.858Z,43.40
2019-03-31T11:05:18.909Z,43.65
2019-03-31T11:07:50.981Z,44.83
2019-03-31T11:10:23.206Z,44.83
2019-03-31T11:12:55.189Z,46.57
2019-03-31T11:15:27.194Z,46.04
2019-03-31T11:17:59.664Z,45.68
2019-03-31T11:20:31.925Z,46.02
2019-03-31T11:23:05.943Z,45.54
2019-03-31T11:25:37.977Z,46.55
2019-03-31T11:28:10.541Z,47.02
2019-03-31T11:30:42.750Z,47.37
2019-03-31T11:33:14.814Z,46.36
2019-03-31T11:35:47.172Z,46.24
2019-03-31T11:38:19.253Z,45.64
2019-03-31T11:40:51.489Z,45.67
2019-03-31T11:43:23.476Z,43.92
2019-03-31T11:45:55.626Z,43.62
2019-03-31T11:48:27.662Z,43.38
2019-03-31T11:51:00.530Z,42.96
2019-03-31T11:53:32.610Z,41.63
2019-03-31T11:56:04.997Z,41.10
2019-03-31T11:58:37.325Z,42.25
2019-03-31T12:01:09.502Z,41.75
2019-03-31T12:03:41.596Z,40.69
2019-03-31T12:06:13.844Z,37.27
2019-03-31T12:08:45.759Z,37.27
2019-03-31T12:11:17.827Z,36.93
2019-03-31T12:13:50.537Z,34.62
2019-03-31T12:16:23.101Z,37.10
2019-03-31T12:18:55.321Z,36.46
2019-03-31T12:21:27.386Z,32.25
2019-03-31T12:23:59.929Z,32.59
2019-03-31T12:26:30.633Z,30.40
2019-03-31T12:29:01.335Z,29.28
2019-03-31T12:31:31.951Z,28.93
2019-03-31T12:34:02.796Z,29.66
2019-03-31T12:36:35.199Z,30.27
2019-03-31T12:39:07.449Z,28.78
2019-03-31T12:41:37.943Z,28.06
2019-03-31T12:44:08.525Z,28.52
2019-03-31T12:46:38.870Z,29.84
2019-03-31T12:49:10.067Z,27.22
2019-03-31T12:51:40.718Z,26.34
2019-03-31T12:54:11.919Z,26.24
2019-03-31T12:56:42.608Z,29.73
2019-03-31T12:59:13.709Z,28.30
2019-03-31T13:01:44.388Z,26.52
2019-03-31T13:04:15.819Z,27.16
2019-03-31T13:06:46.630Z,25.23
2019-03-31T13:09:18.827Z,27.01
2019-03-31T13:11:50.514Z,27.36
2019-03-31T13:14:22.092Z,25.78
2019-03-31T13:16:52.724Z,25.86
2019-03-31T13:19:23.203Z,25.43
2019-03-31T13:21:53.758Z,25.37
2019-03-31T13:24:24.266Z,23.41
2019-03-31T13:26:55.026Z,26.25
2019-03-31T13:29:25.779Z,23.98
2019-03-31T13:31:56.294Z,23.82
2019-03-31T13:34:26.750Z,24.00
2019-03-31T13:36:57.236Z,22.75
2019-03-31T13:39:27.797Z,23.86
2019-03-31T13:41:58.418Z,24.04
2019-03-31T13:44:29.052Z,25.33
2019-03-31T13:46:59.570Z,22.29
2019-03-31T13:49:30.057Z,22.43
2019-03-31T13:52:00.539Z,23.78
2019-03-31T13:56:24.069Z,23.04
2019-03-31T13:58:55.947Z,24.56
2019-03-31T14:01:27.749Z,24.78
2019-03-31T14:04:03.206Z,26.82
2019-03-31T14:06:33.805Z,26.90
2019-03-31T14:09:08.883Z,27.02
2019-03-31T14:11:41.089Z,28.81
2019-03-31T14:14:13.741Z,27.99
2019-03-31T14:16:45.808Z,28.86
2019-03-31T14:19:17.743Z,27.01
2019-03-31T14:21:50.118Z,27.48
2019-03-31T14:24:22.264Z,28.59
2019-03-31T14:26:54.173Z,28.64
2019-03-31T14:29:26.066Z,27.89
2019-03-31T14:31:58.023Z,27.89
2019-03-31T14:34:28.790Z,28.36
2019-03-31T14:36:59.362Z,28.39
2019-03-31T14:39:29.839Z,27.96
2019-03-31T14:42:00.470Z,28.84
2019-03-31T14:44:30.879Z,27.90
2019-03-31T14:47:01.488Z,27.73
2019-03-31T14:49:31.962Z,26.93
2019-03-31T14:52:02.486Z,27.44
2019-03-31T14:54:33.221Z,25.72
2019-03-31T14:57:03.723Z,26.74
2019-03-31T14:59:34.206Z,25.59
2019-03-31T15:02:04.707Z,27.43
2019-03-31T15:04:35.503Z,26.18
2019-03-31T15:07:06.179Z,25.08
2019-03-31T15:09:36.505Z,24.14
2019-03-31T15:12:07.020Z,24.89
2019-03-31T15:14:37.615Z,26.42
2019-03-31T15:17:08.246Z,27.04
2019-03-31T15:19:38.760Z,25.61
2019-03-31T15:22:09.365Z,26.95
2019-03-31T15:24:40.030Z,27.62
2019-03-31T15:27:10.532Z,28.42
2019-03-31T15:29:40.898Z,28.29
2019-03-31T15:32:11.238Z,28.30
2019-03-31T15:34:41.650Z,29.58
2019-03-31T15:37:12.230Z,28.52
2019-03-31T15:39:42.680Z,29.81
2019-03-31T15:42:14.293Z,28.93
2019-03-31T15:44:45.231Z,30.19
2019-03-31T15:47:15.823Z,30.45
2019-03-31T15:49:47.667Z,26.84
2019-03-31T15:52:20.104Z,25.01
2019-03-31T15:54:52.274Z,25.37
2019-03-31T15:57:24.436Z,25.30
2019-03-31T15:59:56.587Z,25.92
2019-03-31T16:02:30.367Z,26.08
2019-03-31T16:05:02.400Z,26.70
2019-03-31T16:07:35.616Z,27.62
2019-03-31T16:10:07.833Z,26.61
2019-03-31T16:12:39.395Z,26.96
2019-03-31T16:15:11.620Z,27.79
2019-03-31T16:17:43.204Z,28.21
2019-03-31T16:20:15.548Z,29.01
2019-03-31T16:22:47.336Z,29.76
2019-03-31T16:25:24.875Z,29.19
2019-03-31T16:27:56.695Z,29.18
2019-03-31T16:30:28.947Z,30.93
2019-03-31T16:33:00.430Z,31.34
2019-03-31T16:35:32.101Z,33.99
2019-03-31T16:38:05.389Z,34.26
2019-03-31T16:40:37.379Z,34.82
2019-03-31T16:43:10.037Z,35.59
2019-03-31T16:45:41.836Z,36.13
2019-03-31T16:48:13.261Z,36.89
2019-03-31T16:50:45.213Z,37.44
2019-03-31T16:53:17.118Z,37.41
2019-03-31T16:55:48.698Z,37.15
2019-03-31T16:58:20.469Z,37.65
2019-03-31T17:00:50.943Z,38.95
2019-03-31T17:03:21.352Z,38.54
2019-03-31T17:05:51.810Z,38.50
2019-03-31T17:08:22.037Z,38.51
2019-03-31T17:10:52.462Z,39.20
2019-03-31T17:13:22.800Z,39.01
2019-03-31T17:15:53.055Z,39.27
2019-03-31T17:18:23.263Z,39.03
2019-03-31T17:20:53.538Z,38.99
2019-03-31T17:23:23.992Z,39.07
2019-03-31T17:25:54.245Z,39.30
2019-03-31T17:28:24.602Z,38.51
2019-03-31T17:30:54.752Z,38.62
2019-03-31T17:33:24.974Z,39.12
2019-03-31T17:35:55.364Z,39.79
2019-03-31T17:38:25.831Z,39.65
2019-03-31T17:40:56.102Z,38.54
2019-03-31T17:43:26.500Z,39.30
2019-03-31T17:45:57.179Z,38.47
2019-03-31T17:48:27.662Z,38.24
2019-03-31T17:50:58.604Z,37.91
2019-03-31T17:53:28.900Z,38.67
2019-03-31T17:55:59.410Z,39.65
2019-03-31T17:58:29.630Z,38.96
2019-03-31T18:01:00.152Z,38.43
2019-03-31T18:03:30.395Z,38.62
2019-03-31T18:06:00.778Z,38.84
2019-03-31T18:08:32.225Z,38.64
2019-03-31T18:11:03.722Z,39.19
2019-03-31T18:13:33.835Z,38.98
2019-03-31T18:16:04.799Z,39.36
2019-03-31T18:18:35.000Z,39.76
2019-03-31T18:21:05.362Z,39.68
2019-03-31T18:23:35.795Z,40.03
2019-03-31T18:26:06.182Z,40.24
2019-03-31T18:28:36.591Z,40.03
2019-03-31T18:31:06.903Z,40.24
2019-03-31T18:33:38.191Z,40.52
2019-03-31T18:36:08.682Z,40.70
2019-03-31T18:38:38.994Z,40.81
2019-03-31T18:41:09.327Z,41.74
2019-03-31T18:43:50.591Z,41.80
2019-03-31T18:46:11.608Z,41.53
2019-03-31T18:48:42.145Z,41.90
2019-03-31T18:51:12.577Z,42.11
2019-03-31T18:53:47.505Z,42.13
2019-03-31T18:56:19.977Z,42.47
2019-03-31T18:59:08.177Z,42.61
2019-03-31T19:01:48.848Z,42.65
2019-03-31T19:04:37.616Z,43.05
2019-03-31T19:07:15.568Z,43.31
2019-03-31T19:10:04.121Z,43.33
2019-03-31T19:12:47.966Z,43.38
2019-03-31T19:15:32.064Z,44.15
2019-03-31T19:18:06.810Z,43.82
2019-03-31T19:20:39.845Z,44.15
2019-03-31T19:23:11.653Z,44.20
2019-03-31T19:25:43.588Z,44.37
2019-03-31T19:28:33.485Z,44.60
2019-03-31T19:31:10.110Z,44.71
2019-03-31T19:33:44.977Z,44.70
2019-03-31T19:36:33.371Z,44.99
2019-03-31T19:39:09.396Z,45.23
2019-03-31T19:41:59.905Z,46.03
2019-03-31T19:44:32.116Z,46.47
2019-03-31T19:47:13.072Z,46.31
2019-03-31T19:49:51.198Z,46.45
2019-03-31T19:52:23.386Z,46.77
2019-03-31T19:54:55.701Z,47.52
2019-03-31T19:57:33.798Z,47.38
2019-03-31T20:00:18.630Z,47.89
2019-03-31T20:02:50.738Z,47.83
2019-03-31T20:05:28.675Z,48.23
2019-03-31T20:08:06.941Z,48.38
2019-03-31T20:10:38.910Z,48.67
2019-03-31T20:13:17.152Z,49.09
2019-03-31T20:16:04.334Z,49.34
2019-03-31T20:18:52.976Z,50.01
2019-03-31T20:21:31.955Z,50.12
2019-03-31T20:24:13.767Z,50.20
2019-03-31T20:26:57.899Z,49.93
2019-03-31T20:29:29.908Z,50.38
2019-03-31T20:32:07.642Z,50.49
2019-03-31T20:34:43.524Z,50.83
2019-03-31T20:37:21.436Z,50.61
2019-03-31T20:40:01.906Z,51.14
2019-03-31T20:42:48.591Z,51.40
2019-03-31T20:45:18.810Z,51.25
2019-03-31T20:47:50.178Z,51.93
2019-03-31T20:50:20.797Z,51.97
2019-03-31T20:52:50.997Z,52.89
2019-03-31T20:55:21.310Z,52.94
2019-03-31T20:57:51.685Z,53.02
2019-03-31T21:00:21.785Z,53.22
2019-03-31T21:02:52.334Z,53.37
2019-03-31T21:05:22.638Z,53.42
2019-03-31T21:07:52.991Z,54.01
2019-03-31T21:10:23.159Z,54.34
2019-03-31T21:12:53.423Z,53.88
2019-03-31T21:15:23.823Z,54.04
2019-03-31T21:17:54.065Z,54.43
2019-03-31T21:20:24.260Z,54.41
2019-03-31T21:22:54.854Z,54.28
2019-03-31T21:25:24.976Z,54.56
2019-03-31T21:27:55.202Z,55.00
2019-03-31T21:30:25.384Z,55.24
2019-03-31T21:32:55.858Z,56.31
2019-03-31T21:35:26.140Z,56.19
2019-03-31T21:37:56.439Z,56.58
2019-03-31T21:40:26.855Z,55.97
2019-03-31T21:42:57.236Z,55.62
2019-03-31T21:45:27.511Z,57.15
2019-03-31T21:47:57.775Z,57.08
2019-03-31T21:50:28.152Z,56.58
2019-03-31T21:52:58.727Z,56.19
2019-03-31T21:55:29.217Z,56.73
2019-03-31T21:57:59.686Z,57.26
2019-03-31T22:00:37.536Z,57.24
2019-03-31T22:03:09.554Z,57.24
2019-03-31T22:05:39.851Z,57.66
2019-03-31T22:08:10.264Z,57.07
2019-03-31T22:10:40.778Z,57.11
2019-03-31T22:13:11.110Z,57.22
2019-03-31T22:15:41.265Z,57.30
2019-03-31T22:18:11.558Z,58.57
2019-03-31T22:20:41.729Z,59.23
2019-03-31T22:23:11.999Z,58.64
2019-03-31T22:25:42.205Z,59.05
2019-03-31T22:28:12.559Z,58.82
2019-03-31T22:30:44.375Z,58.45
2019-03-31T22:33:15.644Z,58.83
2019-03-31T22:35:47.688Z,59.97
2019-03-31T22:38:18.149Z,59.64
2019-03-31T22:40:48.582Z,59.95
2019-03-31T22:43:18.843Z,59.55
2019-03-31T22:45:49.359Z,59.63
2019-03-31T22:48:19.555Z,59.78
2019-03-31T22:50:50.513Z,59.04
2019-03-31T22:53:21.047Z,58.71
2019-03-31T22:55:51.209Z,60.43
2019-03-31T22:58:21.723Z,60.20
2019-03-31T23:00:52.063Z,60.05
2019-03-31T23:03:22.634Z,59.41
2019-03-31T23:05:52.799Z,59.37
2019-03-31T23:08:22.942Z,59.96
2019-03-31T23:10:53.343Z,59.86
2019-03-31T23:13:23.487Z,59.58
2019-03-31T23:15:53.602Z,59.31
2019-03-31T23:18:24.055Z,60.15
2019-03-31T23:20:54.122Z,59.88
2019-03-31T23:23:24.433Z,60.56
2019-03-31T23:25:54.788Z,60.57
2019-03-31T23:28:24.958Z,60.51
2019-03-31T23:30:55.177Z,60.69
2019-03-31T23:33:25.514Z,61.10
2019-03-31T23:35:55.579Z,61.07
2019-03-31T23:38:25.751Z,62.21
2019-03-31T23:40:56.178Z,62.02
2019-03-31T23:43:26.532Z,62.40
2019-03-31T23:45:57.158Z,61.89
2019-03-31T23:48:27.222Z,61.75
2019-03-31T23:50:57.351Z,61.95
2019-03-31T23:53:27.605Z,62.63
2019-03-31T23:55:57.787Z,62.33
2019-03-31T23:58:28.253Z,62.81
